createdAt,value
2019-03-01T00:01:43.418Z,15.90
2019-03-01T00:04:15.826Z,16.00
2019-03-01T00:06:45.596Z,16.00
2019-03-01T00:09:21.057Z,15.90
2019-03-01T00:11:56.527Z,16.00
2019-03-01T00:14:26.173Z,16.10
2019-03-01T00:16:59.389Z,16.10
2019-03-01T00:19:31.593Z,16.30
2019-03-01T00:22:01.163Z,16.20
2019-03-01T00:24:36.484Z,16.00
2019-03-01T00:27:11.712Z,15.80
2019-03-01T00:29:53.090Z,15.60
2019-03-01T00:32:31.583Z,15.70
2019-03-01T00:35:17.637Z,15.70
2019-03-01T00:37:52.896Z,15.70
2019-03-01T00:40:22.644Z,15.70
2019-03-01T00:42:57.690Z,15.80
2019-03-01T00:45:26.682Z,15.70
2019-03-01T00:47:54.861Z,15.70
2019-03-01T00:50:22.914Z,15.70
2019-03-01T00:52:50.717Z,15.60
2019-03-01T00:55:18.579Z,15.80
2019-03-01T00:57:46.640Z,15.80
2019-03-01T01:00:16.215Z,16.00
2019-03-01T01:02:44.218Z,16.20
2019-03-01T01:05:12.237Z,16.10
2019-03-01T01:07:40.231Z,16.10
2019-03-01T01:10:09.222Z,16.20
2019-03-01T01:12:38.828Z,16.20
2019-03-01T01:15:07.559Z,16.10
2019-03-01T01:17:36.339Z,16.10
2019-03-01T01:20:05.361Z,16.10
2019-03-01T01:22:33.320Z,16.00
2019-03-01T01:25:01.253Z,16.10
2019-03-01T01:27:29.570Z,16.20
2019-03-01T01:29:57.666Z,16.00
2019-03-01T01:32:26.100Z,16.30
2019-03-01T01:34:54.533Z,16.50
2019-03-01T01:37:22.703Z,16.50
2019-03-01T01:39:50.696Z,16.60
2019-03-01T01:42:18.686Z,16.40
2019-03-01T01:44:46.733Z,16.20
2019-03-01T01:47:14.690Z,16.20
2019-03-01T01:49:42.849Z,16.20
2019-03-01T01:52:10.964Z,16.10
2019-03-01T01:54:38.908Z,15.80
2019-03-01T01:57:06.917Z,15.90
2019-03-01T01:59:35.974Z,16.00
2019-03-01T02:02:03.935Z,16.10
2019-03-01T02:04:31.831Z,16.00
2019-03-01T02:06:59.837Z,15.90
2019-03-01T02:09:28.034Z,15.70
2019-03-01T02:11:56.056Z,15.80
2019-03-01T02:14:24.208Z,15.80
2019-03-01T02:16:52.935Z,15.90
2019-03-01T02:19:20.860Z,15.90
2019-03-01T02:21:48.649Z,16.00
2019-03-01T02:24:16.747Z,16.20
2019-03-01T02:26:44.787Z,16.30
2019-03-01T02:29:12.755Z,16.30
2019-03-01T02:31:42.332Z,16.10
2019-03-01T02:34:10.318Z,16.10
2019-03-01T02:36:38.233Z,16.10
2019-03-01T02:39:06.332Z,16.10
2019-03-01T02:41:34.354Z,15.90
2019-03-01T02:44:02.341Z,16.10
2019-03-01T02:46:30.356Z,16.30
2019-03-01T02:48:59.494Z,16.40
2019-03-01T02:51:27.657Z,16.40
2019-03-01T02:53:55.697Z,16.30
2019-03-01T02:56:23.668Z,16.20
2019-03-01T02:58:52.283Z,16.00
2019-03-01T03:01:20.444Z,16.00
2019-03-01T03:03:49.861Z,16.10
2019-03-01T03:06:22.780Z,16.00
2019-03-01T03:08:50.708Z,16.10
2019-03-01T03:11:20.879Z,16.20
2019-03-01T03:13:49.005Z,16.10
2019-03-01T03:16:16.886Z,16.30
2019-03-01T03:18:45.604Z,16.20
2019-03-01T03:21:14.741Z,16.00
2019-03-01T03:23:42.743Z,16.30
2019-03-01T03:26:10.818Z,16.20
2019-03-01T03:28:38.848Z,16.10
2019-03-01T03:31:06.806Z,16.00
2019-03-01T03:33:34.829Z,16.10
2019-03-01T03:36:02.827Z,16.00
2019-03-01T03:38:31.157Z,15.90
2019-03-01T03:40:59.027Z,15.80
2019-03-01T03:43:26.886Z,16.00
2019-03-01T03:45:54.986Z,15.90
2019-03-01T03:48:22.954Z,15.80
2019-03-01T03:50:51.081Z,15.60
2019-03-01T03:53:18.896Z,15.50
2019-03-01T03:55:46.845Z,15.40
2019-03-01T03:58:16.513Z,15.30
2019-03-01T04:00:44.479Z,15.60
2019-03-01T04:03:13.706Z,15.90
2019-03-01T04:05:41.843Z,16.10
2019-03-01T04:08:10.773Z,16.20
2019-03-01T04:10:38.779Z,16.20
2019-03-01T04:13:06.780Z,16.20
2019-03-01T04:15:36.780Z,16.10
2019-03-01T04:18:04.626Z,16.00
2019-03-01T04:20:33.926Z,16.10
2019-03-01T04:23:02.047Z,15.90
2019-03-01T04:25:30.100Z,16.10
2019-03-01T04:27:57.985Z,16.30
2019-03-01T04:30:26.127Z,16.40
2019-03-01T04:32:54.097Z,16.50
2019-03-01T04:35:22.363Z,16.40
2019-03-01T04:37:50.387Z,16.20
2019-03-01T04:40:18.505Z,16.30
2019-03-01T04:42:46.772Z,16.20
2019-03-01T04:45:15.822Z,16.20
2019-03-01T04:47:44.165Z,16.20
2019-03-01T04:50:12.563Z,16.30
2019-03-01T04:52:40.851Z,16.30
2019-03-01T04:55:10.517Z,16.30
2019-03-01T04:57:40.023Z,16.10
2019-03-01T05:00:15.520Z,16.00
2019-03-01T05:02:43.889Z,16.20
2019-03-01T05:05:14.131Z,16.60
2019-03-01T05:07:42.145Z,16.60
2019-03-01T05:10:11.449Z,16.90
2019-03-01T05:12:39.447Z,16.80
2019-03-01T05:15:09.471Z,16.80
2019-03-01T05:17:37.446Z,16.80
2019-03-01T05:20:06.093Z,16.80
2019-03-01T05:22:34.175Z,16.50
2019-03-01T05:25:02.145Z,16.70
2019-03-01T05:27:30.340Z,16.80
2019-03-01T05:29:58.587Z,16.90
2019-03-01T05:32:26.571Z,16.70
2019-03-01T05:34:54.578Z,16.90
2019-03-01T05:37:22.646Z,16.60
2019-03-01T05:39:50.582Z,16.50
2019-03-01T05:42:18.580Z,16.40
2019-03-01T05:44:46.692Z,16.20
2019-03-01T05:47:14.652Z,16.20
2019-03-01T05:49:42.570Z,16.00
2019-03-01T05:52:10.670Z,16.10
2019-03-01T05:54:38.670Z,16.50
2019-03-01T05:57:07.327Z,16.80
2019-03-01T05:59:35.465Z,16.90
2019-03-01T06:02:05.330Z,17.00
2019-03-01T06:04:37.630Z,16.90
2019-03-01T06:07:22.531Z,16.80
2019-03-01T06:09:54.899Z,16.40
2019-03-01T06:12:39.858Z,16.10
2019-03-01T06:15:28.018Z,16.00
2019-03-01T06:17:57.770Z,15.70
2019-03-01T06:20:27.419Z,16.00
2019-03-01T06:23:03.698Z,16.20
2019-03-01T06:25:45.516Z,16.40
2019-03-01T06:28:24.179Z,16.40
2019-03-01T06:31:12.459Z,16.60
2019-03-01T06:33:51.059Z,16.80
2019-03-01T06:36:23.739Z,16.60
2019-03-01T06:39:16.090Z,16.70
2019-03-01T06:41:51.689Z,16.50
2019-03-01T06:44:25.680Z,16.60
2019-03-01T06:47:01.225Z,16.40
2019-03-01T06:49:31.352Z,16.40
2019-03-01T06:51:59.343Z,16.20
2019-03-01T06:54:27.348Z,16.40
2019-03-01T06:56:55.936Z,16.20
2019-03-01T06:59:25.738Z,16.20
2019-03-01T07:01:54.050Z,16.40
2019-03-01T07:04:22.477Z,16.50
2019-03-01T07:06:51.412Z,16.90
2019-03-01T07:09:19.876Z,16.80
2019-03-01T07:11:47.841Z,16.80
2019-03-01T07:14:16.292Z,16.90
2019-03-01T07:16:44.504Z,16.90
2019-03-01T07:19:12.895Z,16.90
2019-03-01T07:21:42.493Z,16.50
2019-03-01T07:24:11.221Z,16.60
2019-03-01T07:26:39.434Z,16.60
2019-03-01T07:29:08.773Z,16.80
2019-03-01T07:31:37.678Z,16.90
2019-03-01T07:34:06.813Z,17.10
2019-03-01T07:36:35.848Z,17.20
2019-03-01T07:39:08.513Z,17.10
2019-03-01T07:41:37.647Z,17.00
2019-03-01T07:44:09.976Z,17.00
2019-03-01T07:46:39.356Z,17.10
2019-03-01T07:49:08.651Z,17.10
2019-03-01T07:51:38.873Z,17.10
2019-03-01T07:54:07.972Z,17.30
2019-03-01T07:56:40.689Z,17.60
2019-03-01T07:59:09.764Z,17.70
2019-03-01T08:01:39.151Z,17.60
2019-03-01T08:04:07.969Z,17.50
2019-03-01T08:06:38.774Z,17.60
2019-03-01T08:09:14.279Z,17.90
2019-03-01T08:11:44.719Z,17.90
2019-03-01T08:14:13.877Z,18.20
2019-03-01T08:16:42.890Z,18.20
2019-03-01T08:19:16.167Z,18.40
2019-03-01T08:21:45.910Z,18.50
2019-03-01T08:24:14.935Z,18.50
2019-03-01T08:26:44.116Z,18.80
2019-03-01T08:29:13.418Z,19.00
2019-03-01T08:31:43.346Z,19.10
2019-03-01T08:34:14.460Z,19.20
2019-03-01T08:36:44.506Z,19.20
2019-03-01T08:39:14.621Z,19.70
2019-03-01T08:41:43.694Z,19.90
2019-03-01T08:44:12.956Z,20.00
2019-03-01T08:46:45.664Z,20.10
2019-03-01T08:49:13.757Z,20.10
2019-03-01T08:51:42.954Z,20.10
2019-03-01T08:54:11.985Z,20.20
2019-03-01T08:56:41.132Z,19.80
2019-03-01T08:59:14.036Z,19.40
2019-03-01T09:01:44.656Z,19.60
2019-03-01T09:04:18.102Z,19.50
2019-03-01T09:06:45.617Z,19.60
2019-03-01T09:09:17.666Z,19.70
2019-03-01T09:11:46.668Z,19.40
2019-03-01T09:14:18.119Z,19.70
2019-03-01T09:16:47.350Z,19.90
2019-03-01T09:19:16.510Z,19.80
2019-03-01T09:21:49.929Z,19.50
2019-03-01T09:24:16.601Z,19.40
2019-03-01T09:26:45.793Z,19.40
2019-03-01T09:29:18.452Z,19.40
2019-03-01T09:31:46.951Z,19.20
2019-03-01T09:34:16.422Z,19.00
2019-03-01T09:36:47.393Z,18.90
2019-03-01T09:39:18.013Z,19.00
2019-03-01T09:41:48.167Z,19.00
2019-03-01T09:44:17.370Z,19.10
2019-03-01T09:46:46.451Z,19.00
2019-03-01T09:49:15.613Z,19.20
2019-03-01T09:51:49.219Z,19.10
2019-03-01T09:54:15.497Z,19.20
2019-03-01T09:56:44.582Z,19.40
2019-03-01T09:59:15.044Z,19.70
2019-03-01T10:01:44.644Z,19.40
2019-03-01T10:04:14.468Z,19.30
2019-03-01T10:06:43.313Z,19.30
2019-03-01T10:09:12.600Z,19.20
2019-03-01T10:11:41.860Z,19.30
2019-03-01T10:14:11.116Z,19.10
2019-03-01T10:16:40.281Z,18.90
2019-03-01T10:19:09.608Z,19.20
2019-03-01T10:21:38.999Z,19.30
2019-03-01T10:24:08.129Z,19.30
2019-03-01T10:26:38.782Z,19.50
2019-03-01T10:29:08.232Z,19.60
2019-03-01T10:31:37.197Z,19.70
2019-03-01T10:34:06.477Z,19.50
2019-03-01T10:36:35.588Z,19.50
2019-03-01T10:39:05.559Z,19.70
2019-03-01T10:41:34.452Z,19.80
2019-03-01T10:44:03.177Z,19.80
2019-03-01T10:46:33.312Z,19.90
2019-03-01T10:49:02.393Z,20.00
2019-03-01T10:51:31.059Z,20.10
2019-03-01T10:53:59.798Z,20.40
2019-03-01T10:56:28.426Z,20.90
2019-03-01T10:58:58.462Z,21.30
2019-03-01T11:01:27.478Z,21.40
2019-03-01T11:03:56.074Z,21.30
2019-03-01T11:06:25.601Z,21.10
2019-03-01T11:08:54.171Z,21.40
2019-03-01T11:11:23.374Z,21.90
2019-03-01T11:13:52.362Z,21.80
2019-03-01T11:16:21.419Z,21.20
2019-03-01T11:18:50.415Z,21.40
2019-03-01T11:21:19.324Z,21.30
2019-03-01T11:23:48.161Z,21.20
2019-03-01T11:26:16.907Z,21.20
2019-03-01T11:28:45.650Z,21.10
2019-03-01T11:31:14.424Z,21.30
2019-03-01T11:33:43.040Z,21.70
2019-03-01T11:36:13.103Z,22.20
2019-03-01T11:38:43.880Z,22.30
2019-03-01T11:41:12.975Z,22.00
2019-03-01T11:43:41.892Z,21.40
2019-03-01T11:46:10.994Z,21.20
2019-03-01T11:48:39.858Z,21.10
2019-03-01T11:51:08.867Z,21.00
2019-03-01T11:53:37.639Z,20.50
2019-03-01T11:56:06.433Z,19.60
2019-03-01T11:58:35.128Z,19.80
2019-03-01T12:01:04.041Z,20.00
2019-03-01T12:03:33.199Z,20.30
2019-03-01T12:06:02.151Z,20.00
2019-03-01T12:08:31.092Z,20.30
2019-03-01T12:10:59.719Z,20.30
2019-03-01T12:13:28.749Z,20.10
2019-03-01T12:15:57.825Z,20.00
2019-03-01T12:18:26.964Z,19.80
2019-03-01T12:20:56.173Z,19.60
2019-03-01T12:23:25.059Z,19.40
2019-03-01T12:25:54.014Z,19.00
2019-03-01T12:28:23.095Z,18.60
2019-03-01T12:30:52.239Z,18.60
2019-03-01T12:33:21.336Z,18.70
2019-03-01T12:35:49.286Z,18.70
2019-03-01T12:38:17.394Z,18.10
2019-03-01T12:40:45.710Z,17.60
2019-03-01T12:43:14.868Z,17.70
2019-03-01T12:45:45.910Z,18.30
2019-03-01T12:48:14.919Z,18.90
2019-03-01T12:50:44.083Z,19.00
2019-03-01T12:53:12.863Z,18.80
2019-03-01T12:55:41.911Z,19.20
2019-03-01T12:58:19.183Z,19.00
2019-03-01T13:00:41.328Z,18.50
2019-03-01T13:03:11.854Z,18.60
2019-03-01T13:05:40.747Z,18.40
2019-03-01T13:11:20.152Z,18.30
2019-03-01T13:13:49.254Z,18.30
2019-03-01T13:16:18.271Z,18.40
2019-03-01T13:18:47.775Z,18.60
2019-03-01T13:21:17.693Z,18.50
2019-03-01T13:23:46.646Z,18.00
2019-03-01T13:26:15.646Z,17.90
2019-03-01T13:28:47.086Z,18.10
2019-03-01T13:31:14.867Z,18.30
2019-03-01T13:33:44.224Z,18.40
2019-03-01T13:36:13.382Z,18.50
2019-03-01T13:38:42.596Z,18.40
2019-03-01T13:41:11.951Z,18.20
2019-03-01T13:43:39.962Z,17.70
2019-03-01T13:46:08.312Z,17.40
2019-03-01T13:48:36.613Z,17.60
2019-03-01T13:51:04.552Z,17.50
2019-03-01T13:53:33.323Z,17.40
2019-03-01T13:56:02.496Z,17.50
2019-03-01T13:58:30.819Z,17.40
2019-03-01T14:00:58.990Z,17.20
2019-03-01T14:03:27.783Z,17.00
2019-03-01T14:05:58.153Z,16.60
2019-03-01T14:08:28.142Z,16.20
2019-03-01T14:10:56.879Z,16.30
2019-03-01T14:13:26.681Z,16.10
2019-03-01T14:15:55.053Z,16.20
2019-03-01T14:18:23.031Z,16.30
2019-03-01T14:20:54.300Z,16.40
2019-03-01T14:23:24.642Z,16.60
2019-03-01T14:25:50.999Z,17.10
2019-03-01T14:28:20.108Z,17.50
2019-03-01T14:30:48.357Z,17.30
2019-03-01T14:33:19.551Z,17.10
2019-03-01T14:35:48.194Z,16.10
2019-03-01T14:38:16.192Z,15.90
2019-03-01T14:44:07.334Z,15.50
2019-03-01T14:46:36.938Z,15.40
2019-03-01T14:49:05.067Z,15.30
2019-03-01T14:51:33.179Z,15.60
2019-03-01T14:54:01.594Z,16.20
2019-03-01T14:56:34.912Z,16.30
2019-03-01T14:59:12.366Z,16.60
2019-03-01T15:01:44.939Z,16.20
2019-03-01T15:04:13.534Z,15.90
2019-03-01T15:06:41.759Z,15.70
2019-03-01T15:09:09.901Z,15.30
2019-03-01T15:11:41.190Z,15.00
2019-03-01T15:14:13.448Z,15.00
2019-03-01T15:16:43.342Z,15.20
2019-03-01T15:19:09.993Z,15.40
2019-03-01T15:21:38.426Z,15.30
2019-03-01T15:24:06.912Z,15.10
2019-03-01T15:26:35.136Z,15.20
2019-03-01T15:29:03.435Z,15.30
2019-03-01T15:31:34.542Z,15.20
2019-03-01T15:34:03.231Z,15.60
2019-03-01T15:36:31.343Z,15.30
2019-03-01T15:39:00.283Z,15.20
2019-03-01T15:41:29.160Z,15.10
2019-03-01T15:43:57.442Z,14.90
2019-03-01T15:46:25.367Z,14.60
2019-03-01T15:48:53.574Z,14.60
2019-03-01T15:51:21.806Z,14.80
2019-03-01T15:53:50.335Z,15.10
2019-03-01T15:56:18.611Z,15.70
2019-03-01T15:58:46.814Z,16.20
2019-03-01T16:01:15.076Z,16.10
2019-03-01T16:03:43.251Z,16.10
2019-03-01T16:06:17.269Z,15.50
2019-03-01T16:08:43.950Z,15.40
2019-03-01T16:11:12.629Z,15.50
2019-03-01T16:13:41.411Z,15.00
2019-03-01T16:16:10.807Z,14.90
2019-03-01T16:18:39.905Z,14.80
2019-03-01T16:21:08.293Z,14.60
2019-03-01T16:23:36.511Z,14.70
2019-03-01T16:26:04.705Z,15.10
2019-03-01T16:28:33.084Z,15.20
2019-03-01T16:31:01.151Z,15.50
2019-03-01T16:33:29.967Z,15.60
2019-03-01T16:36:00.954Z,15.60
2019-03-01T16:38:29.290Z,15.50
2019-03-01T16:40:57.131Z,15.20
2019-03-01T16:43:28.629Z,15.20
2019-03-01T16:45:56.392Z,15.10
2019-03-01T16:48:25.169Z,14.80
2019-03-01T16:50:53.202Z,14.80
2019-03-01T16:53:21.454Z,15.00
2019-03-01T16:55:49.794Z,15.10
2019-03-01T16:58:18.201Z,15.00
2019-03-01T17:00:46.269Z,15.10
2019-03-01T17:03:18.011Z,15.20
2019-03-01T17:05:45.549Z,15.20
2019-03-01T17:08:13.941Z,15.30
2019-03-01T17:10:42.562Z,15.40
2019-03-01T17:13:10.864Z,15.40
2019-03-01T17:15:39.796Z,15.40
2019-03-01T17:18:11.285Z,15.50
2019-03-01T17:20:38.594Z,15.50
2019-03-01T17:23:06.771Z,15.80
2019-03-01T17:25:35.352Z,15.70
2019-03-01T17:28:03.777Z,15.60
2019-03-01T17:30:32.297Z,15.70
2019-03-01T17:33:00.760Z,15.60
2019-03-01T17:35:29.167Z,15.90
2019-03-01T17:37:57.780Z,15.70
2019-03-01T17:40:29.424Z,15.70
2019-03-01T17:42:56.622Z,15.60
2019-03-01T17:45:26.570Z,15.90
2019-03-01T17:47:56.616Z,15.80
2019-03-01T17:50:25.423Z,16.10
2019-03-01T17:52:53.689Z,16.20
2019-03-01T17:55:24.345Z,16.20
2019-03-01T17:57:53.379Z,16.20
2019-03-01T18:00:27.757Z,16.20
2019-03-01T18:02:56.193Z,16.30
2019-03-01T18:05:24.620Z,16.30
2019-03-01T18:07:53.261Z,16.20
2019-03-01T18:10:21.593Z,16.10
2019-03-01T18:12:53.130Z,16.20
2019-03-01T18:15:21.110Z,16.00
2019-03-01T18:17:49.378Z,16.10
2019-03-01T18:20:17.885Z,16.10
2019-03-01T18:22:46.396Z,16.10
2019-03-01T18:25:15.449Z,16.00
2019-03-01T18:27:43.677Z,16.10
2019-03-01T18:30:16.079Z,16.20
2019-03-01T18:32:45.059Z,16.20
2019-03-01T18:35:13.773Z,16.20
2019-03-01T18:37:42.205Z,16.20
2019-03-01T18:40:13.480Z,16.10
2019-03-01T18:42:41.042Z,16.10
2019-03-01T18:45:13.347Z,16.00
2019-03-01T18:47:41.381Z,16.10
2019-03-01T18:50:13.863Z,16.10
2019-03-01T18:52:42.142Z,16.20
2019-03-01T18:55:13.652Z,16.20
2019-03-01T18:57:40.410Z,16.30
2019-03-01T19:00:18.826Z,16.20
2019-03-01T19:02:47.023Z,16.10
2019-03-01T19:05:14.977Z,16.10
2019-03-01T19:07:43.143Z,16.10
2019-03-01T19:10:12.970Z,16.20
2019-03-01T19:12:41.009Z,16.10
2019-03-01T19:15:12.176Z,16.00
2019-03-01T19:17:40.786Z,16.10
2019-03-01T19:20:11.339Z,16.30
2019-03-01T19:22:39.369Z,16.20
2019-03-01T19:25:08.530Z,16.20
2019-03-01T19:27:36.917Z,16.20
2019-03-01T19:30:10.510Z,16.10
2019-03-01T19:32:37.333Z,16.10
2019-03-01T19:35:06.415Z,16.20
2019-03-01T19:37:34.410Z,16.30
2019-03-01T19:40:02.489Z,16.40
2019-03-01T19:42:33.128Z,16.40
2019-03-01T19:45:00.820Z,16.40
2019-03-01T19:47:29.888Z,16.50
2019-03-01T19:49:59.294Z,16.60
2019-03-01T19:52:27.387Z,16.50
2019-03-01T19:54:55.603Z,16.40
2019-03-01T19:57:24.738Z,16.40
2019-03-01T19:59:54.053Z,16.40
2019-03-01T20:02:22.292Z,16.40
2019-03-01T20:04:52.535Z,16.30
2019-03-01T20:07:20.781Z,16.40
2019-03-01T20:09:49.266Z,16.40
2019-03-01T20:12:20.785Z,16.50
2019-03-01T20:14:49.540Z,16.50
2019-03-01T20:17:20.057Z,16.50
2019-03-01T20:19:48.108Z,16.60
2019-03-01T20:22:18.560Z,16.70
2019-03-01T20:24:45.913Z,16.60
2019-03-01T20:27:14.076Z,16.70
2019-03-01T20:29:42.160Z,16.90
2019-03-01T20:32:12.552Z,16.90
2019-03-01T20:34:40.022Z,16.90
2019-03-01T20:37:08.126Z,17.00
2019-03-01T20:39:36.207Z,17.00
2019-03-01T20:42:04.522Z,17.00
2019-03-01T20:44:32.435Z,16.90
2019-03-01T20:47:00.506Z,16.50
2019-03-01T20:49:28.587Z,16.60
2019-03-01T20:51:58.734Z,15.70
2019-03-01T20:54:27.080Z,14.90
2019-03-01T20:56:57.484Z,14.30
2019-03-01T20:59:27.161Z,14.30
2019-03-01T21:01:55.438Z,14.60
2019-03-01T21:04:25.714Z,14.70
2019-03-01T21:06:53.975Z,14.40
2019-03-01T21:09:22.193Z,14.50
2019-03-01T21:11:50.589Z,14.70
2019-03-01T21:14:19.199Z,15.20
2019-03-01T21:16:49.104Z,14.80
2019-03-01T21:19:17.466Z,14.90
2019-03-01T21:21:45.903Z,14.60
2019-03-01T21:24:14.780Z,14.30
2019-03-01T21:26:43.262Z,14.10
2019-03-01T21:29:12.497Z,13.90
2019-03-01T21:31:41.702Z,14.10
2019-03-01T21:34:09.902Z,14.10
2019-03-01T21:36:39.924Z,14.60
2019-03-01T21:39:09.497Z,14.30
2019-03-01T21:41:37.911Z,14.00
2019-03-01T21:44:10.344Z,13.80
2019-03-01T21:46:36.699Z,13.70
2019-03-01T21:49:05.001Z,13.60
2019-03-01T21:51:34.917Z,13.50
2019-03-01T21:54:03.247Z,13.10
2019-03-01T21:56:31.383Z,13.20
2019-03-01T21:58:59.857Z,12.90
2019-03-01T22:01:30.783Z,12.80
2019-03-01T22:03:59.265Z,12.60
2019-03-01T22:06:28.857Z,12.60
2019-03-01T22:08:57.234Z,12.50
2019-03-01T22:11:25.701Z,12.40
2019-03-01T22:13:54.163Z,12.40
2019-03-01T22:16:22.409Z,13.10
2019-03-01T22:18:50.920Z,13.20
2019-03-01T22:21:22.624Z,13.30
2019-03-01T22:23:51.461Z,13.70
2019-03-01T22:26:20.055Z,13.20
2019-03-01T22:28:48.125Z,13.20
2019-03-01T22:31:16.294Z,13.10
2019-03-01T22:33:44.641Z,12.80
2019-03-01T22:36:15.281Z,12.60
2019-03-01T22:38:42.880Z,12.30
2019-03-01T22:41:10.998Z,12.00
2019-03-01T22:43:40.259Z,12.00
2019-03-01T22:46:08.915Z,12.30
2019-03-01T22:48:46.420Z,12.10
2019-03-01T22:51:07.224Z,12.10
2019-03-01T22:53:38.571Z,11.80
2019-03-01T22:56:05.294Z,11.60
2019-03-01T22:58:36.456Z,11.40
2019-03-01T23:01:05.498Z,11.40
2019-03-01T23:03:33.616Z,11.50
2019-03-01T23:06:01.505Z,11.50
2019-03-01T23:08:31.749Z,11.60
2019-03-01T23:10:58.944Z,11.80
2019-03-01T23:13:27.092Z,11.80
2019-03-01T23:15:54.889Z,11.80
2019-03-01T23:18:22.910Z,11.90
2019-03-01T23:20:50.981Z,12.30
2019-03-01T23:23:23.786Z,12.20
2019-03-01T23:25:48.448Z,12.30
2019-03-01T23:28:16.814Z,12.20
2019-03-01T23:30:44.891Z,12.40
2019-03-01T23:33:13.005Z,12.40
2019-03-01T23:35:41.300Z,12.40
2019-03-01T23:38:11.584Z,12.60
2019-03-01T23:40:39.376Z,12.60
2019-03-01T23:43:07.352Z,12.50
2019-03-01T23:45:35.488Z,12.40
2019-03-01T23:48:03.848Z,12.20
2019-03-01T23:50:34.940Z,12.00
2019-03-01T23:53:04.434Z,12.10
2019-03-01T23:55:32.772Z,11.90
2019-03-01T23:58:06.003Z,11.90
